M I D A S
Marine Information and Data Acquisition System
Tripno 325 of the Zeeleeuw from 2002-08-12 06:44:28 to 2002-08-12 13:50:56
Back to CruiseResearch ActivitiesStationsMapUnderway DataData graphs

EquipmentUnitsComments
TimeDGPSUTC
LatitudeDGPSDM.mWGS84
LongitudeDGPSDM.mWGS84
SpeedMeteo Stationm/sRelative wind speed
DirectionMeteo StationdegRelative wind direction
TemperatureMeteo Stationdeg CelciusAir temperature
PressureMeteo StationPaAtmospheric pressure
HumidityMeteo Station%Relative humidity
Missing or incorrect values are displayed as -999
Metereological data collected by the RV Zeeleeuw from 2002-08-12 06:44:28 to 2002-08-12 13:50:56
Time Latitude Longitude Speed Direction Temperature Pressure Humidity
2002-08-12 06:45 51°13.633 2°55.955 5.9 224 18.3 100830 79
2002-08-12 06:46 51°13.666 2°55.875 5.5 237 18.3 100840 79
2002-08-12 06:47 51°13.704 2°55.771 7.5 227 18.2 100830 79
2002-08-12 06:48 51°13.765 2°55.688 5.3 245 18.2 100840 79
2002-08-12 06:49 51°13.842 2°55.631 7.3 244 18.2 100840 80
2002-08-12 06:50 51°13.925 2°55.574 7.1 243 18.1 100840 81
2002-08-12 06:51 51°14.018 2°55.51 9.8 244 18.1 100840 81
2002-08-12 06:52 51°14.115 2°55.434 9.5 252 18.1 100840 82
2002-08-12 06:53 51°14.216 2°55.329 10.5 238 18 100840 82
2002-08-12 06:54 51°14.304 2°55.19 11 234 18 100840 82
2002-08-12 06:55 51°14.374 2°55.018 10.7 226 18 100850 82
2002-08-12 06:56 51°14.387 2°54.824 9.6 210 18 100840 82
2002-08-12 06:57 51°14.35 2°54.62 8.3 191 18 100850 82
2002-08-12 06:58 51°14.288 2°54.42 8 190 17.9 100860 83
2002-08-12 06:59 51°14.206 2°54.173 9.8 195 17.9 100850 82
2002-08-12 07:00 51°14.105 2°53.859 11.5 201 17.9 100850 82
2002-08-12 07:01 51°13.997 2°53.513 9.9 205 17.8 100860 82
2002-08-12 07:02 51°13.89 2°53.172 12.6 207 17.8 100850 82
2002-08-12 07:03 51°13.774 2°52.802 12.7 203 17.8 100850 83
2002-08-12 07:04 51°13.661 2°52.447 11.2 205 17.8 100860 83
2002-08-12 07:05 51°13.549 2°52.092 12.3 205 17.7 100860 82
2002-08-12 07:06 51°13.439 2°51.736 12 207 17.7 100870 83
2002-08-12 07:07 51°13.326 2°51.382 11.9 200 17.7 100870 82
2002-08-12 07:08 51°13.206 2°51.032 12.1 200 17.7 100870 83
2002-08-12 07:09 51°13.087 2°50.682 12.3 201 17.7 100870 83
2002-08-12 07:10 51°12.968 2°50.331 12.3 202 17.7 100880 84
2002-08-12 07:11 51°12.849 2°49.979 11.7 205 17.6 100870 83
2002-08-12 07:12 51°12.731 2°49.629 12.2 204 17.6 100880 83
2002-08-12 07:13 51°12.613 2°49.279 12.4 198 17.6 100880 83
2002-08-12 07:14 51°12.495 2°48.927 12.7 205 17.6 100880 82
2002-08-12 07:15 51°12.376 2°48.573 11.1 197 17.7 100880 82
2002-08-12 07:16 51°12.256 2°48.221 10.5 198 17.6 100880 82
2002-08-12 07:17 51°12.134 2°47.87 11.6 197 17.6 100880 81
2002-08-12 07:18 51°12.012 2°47.519 10.7 206 17.6 100890 82
2002-08-12 07:19 51°11.889 2°47.168 10.4 209 17.7 100890 82
2002-08-12 07:20 51°11.767 2°46.818 12.2 206 17.6 100890 82
2002-08-12 07:21 51°11.649 2°46.474 11 200 17.6 100890 82
2002-08-12 07:22 51°11.532 2°46.136 10.3 200 17.6 100890 81
2002-08-12 07:23 51°11.417 2°45.798 11.4 203 17.7 100900 82
2002-08-12 07:24 51°11.3 2°45.457 10.8 199 17.7 100900 82
2002-08-12 07:25 51°11.184 2°45.119 11.3 204 17.7 100900 82
2002-08-12 07:26 51°11.068 2°44.78 11.5 205 17.6 100900 81
2002-08-12 07:27 51°10.951 2°44.442 10.6 204 17.6 100910 82
2002-08-12 07:28 51°10.838 2°44.102 10.9 201 17.7 100910 82
2002-08-12 07:29 51°10.725 2°43.763 10.1 200 17.6 100920 82
2002-08-12 07:30 51°10.609 2°43.428 10.1 203 17.6 100920 82
2002-08-12 07:31 51°10.514 2°43.08 10.7 195 17.7 100920 82
2002-08-12 07:32 51°10.409 2°42.741 10.9 200 17.7 100920 83
2002-08-12 07:33 51°10.324 2°42.39 9.3 194 17.7 100920 82
2002-08-12 07:34 51°10.231 2°42.045 9.8 205 17.7 100930 82
2002-08-12 07:35 51°10.142 2°41.695 10.8 201 17.7 100930 82
2002-08-12 07:36 51°10.065 2°41.337 11.6 206 17.7 100930 82
2002-08-12 07:37 51°9.986 2°40.977 11.6 201 17.7 100930 82
2002-08-12 07:38 51°9.907 2°40.614 11.6 207 17.7 100930 82
2002-08-12 07:39 51°9.827 2°40.251 12.1 206 17.8 100930 83
2002-08-12 07:40 51°9.749 2°39.884 11.1 211 17.8 100930 83
2002-08-12 07:41 51°9.67 2°39.515 13.8 207 17.8 100930 83
2002-08-12 07:42 51°9.59 2°39.144 12.6 207 17.8 100930 84
2002-08-12 07:43 51°9.511 2°38.77 12.7 211 17.8 100940 84
2002-08-12 07:44 51°9.43 2°38.396 13 209 17.7 100940 83
2002-08-12 07:45 51°9.333 2°38.033 12.9 206 17.7 100940 83
2002-08-12 07:46 51°9.226 2°37.679 11.3 204 17.7 100940 83
2002-08-12 07:47 51°9.147 2°37.418 8.8 191 17.7 100950 83
2002-08-12 07:48 51°9.087 2°37.274 7.1 168 17.7 100960 83
2002-08-12 07:49 51°9.063 2°37.221 5.3 170 17.7 100970 83
2002-08-12 07:50 51°9.054 2°37.179 7.5 218 17.7 100970 83
2002-08-12 07:51 51°9.095 2°37.086 9.7 275 17.7 100970 84
2002-08-12 07:52 51°9.143 2°37.147 3.2 4 17.7 100970 83
2002-08-12 07:53 51°9.101 2°37.25 4.1 69 17.7 100980 83
2002-08-12 07:54 51°9.071 2°37.271 6.3 31 17.8 100990 83
2002-08-12 07:55 51°9.073 2°37.281 3.9 317 17.9 100990 82
2002-08-12 07:56 51°9.093 2°37.292 4.6 299 17.9 100980 83
2002-08-12 07:57 51°9.101 2°37.284 8 301 17.9 100990 83
2002-08-12 07:58 51°9.114 2°37.275 6.5 301 17.8 100980 82
2002-08-12 07:59 51°9.128 2°37.265 8.2 301 17.8 100990 82
2002-08-12 08:00 51°9.145 2°37.257 7.8 301 17.8 100980 82
2002-08-12 08:01 51°9.162 2°37.248 5.3 306 17.8 100990 82
2002-08-12 08:02 51°9.179 2°37.24 6.8 299 17.8 100990 82
2002-08-12 08:03 51°9.191 2°37.229 5.8 302 17.9 101000 83
2002-08-12 08:04 51°9.197 2°37.214 4.7 318 17.9 100990 82
2002-08-12 08:05 51°9.226 2°37.173 10 229 17.8 101000 83
2002-08-12 08:06 51°9.177 2°37.03 6 139 17.9 100980 83
2002-08-12 08:07 51°9.135 2°37.142 1.6 325 17.8 101010 84
2002-08-12 08:08 51°9.159 2°37.25 3.7 338 17.8 101010 84
2002-08-12 08:09 51°9.164 2°37.286 3.3 338 17.8 101010 84
2002-08-12 08:10 51°9.165 2°37.278 2.2 299 17.8 101010 84
2002-08-12 08:11 51°9.165 2°37.267 2.7 331 17.8 101010 84
2002-08-12 08:12 51°9.165 2°37.256 5.6 318 17.8 101010 84
2002-08-12 08:13 51°9.163 2°37.244 4.3 304 17.7 101020 83
2002-08-12 08:14 51°9.161 2°37.232 5.4 307 17.8 101010 84
2002-08-12 08:15 51°9.162 2°37.22 7 301 17.8 101020 84
2002-08-12 08:16 51°9.165 2°37.207 6.8 298 17.8 101010 84
2002-08-12 08:17 51°9.172 2°37.196 5 310 17.8 101020 84
2002-08-12 08:18 51°9.182 2°37.191 5 304 17.9 101020 84
2002-08-12 08:19 51°9.192 2°37.197 2.8 341 17.9 101020 84
2002-08-12 08:20 51°9.197 2°37.214 5.4 360 17.9 101020 84
2002-08-12 08:21 51°9.2 2°37.238 1.9 330 17.8 101030 84
2002-08-12 08:22 51°9.203 2°37.262 4.5 340 17.9 101030 84
2002-08-12 08:23 51°9.204 2°37.281 5.7 357 17.9 101030 84
2002-08-12 08:24 51°9.2 2°37.297 7.1 20 17.9 101020 84
2002-08-12 08:25 51°9.191 2°37.312 7.3 20 17.9 101030 84
2002-08-12 08:26 51°9.177 2°37.327 5.4 35 17.8 101030 83
2002-08-12 08:27 51°9.156 2°37.336 6.7 52 18 101040 85
2002-08-12 08:28 51°9.127 2°37.332 5.8 83 18 101050 84
2002-08-12 08:29 51°9.094 2°37.318 5.3 99 18 101050 84
2002-08-12 08:30 51°9.058 2°37.296 5.3 112 18 101050 84
2002-08-12 08:31 51°9.022 2°37.262 5.6 126 18 101050 84
2002-08-12 08:32 51°8.991 2°37.218 7.9 144 17.9 101050 83
2002-08-12 08:33 51°8.968 2°37.172 6.8 159 17.9 101050 83
2002-08-12 08:34 51°8.942 2°37.082 11 198 17.9 101050 84
2002-08-12 08:35 51°8.904 2°36.776 14.4 215 17.8 101010 85
2002-08-12 08:36 51°8.897 2°36.417 13.2 217 17.8 101020 84
2002-08-12 08:37 51°8.885 2°36.036 15 218 17.8 101030 84
2002-08-12 08:38 51°8.885 2°35.632 14.6 218 17.9 101010 85
2002-08-12 08:39 51°8.892 2°35.228 14.6 220 17.9 101020 85
2002-08-12 08:40 51°8.922 2°34.83 15.8 222 17.8 101020 85
2002-08-12 08:41 51°8.952 2°34.434 13.9 220 17.8 101010 84
2002-08-12 08:42 51°8.983 2°34.041 14.1 221 17.9 101020 84
2002-08-12 08:43 51°9.02 2°33.648 16.4 222 17.9 101030 83
2002-08-12 08:44 51°9.057 2°33.254 14.6 223 17.9 101030 83
2002-08-12 08:45 51°9.097 2°32.978 10.8 243 17.9 101040 83
2002-08-12 08:46 51°9.135 2°32.908 8.5 300 17.9 101060 82
2002-08-12 08:47 51°9.138 2°32.892 6.7 299 17.9 101060 82
2002-08-12 08:48 51°9.136 2°32.88 6.4 296 17.9 101070 82
2002-08-12 08:49 51°9.131 2°32.866 6.4 301 17.9 101070 82
2002-08-12 08:50 51°9.124 2°32.85 5.6 308 18 101070 82
2002-08-12 08:51 51°9.115 2°32.833 5.6 310 18 101070 82
2002-08-12 08:52 51°9.105 2°32.815 5.9 309 18 101080 82
2002-08-12 08:53 51°9.094 2°32.794 7.2 303 18.1 101080 83
2002-08-12 08:54 51°9.082 2°32.776 5.9 312 18.1 101080 82
2002-08-12 08:55 51°9.073 2°32.759 8.2 300 18 101080 82
2002-08-12 08:56 51°9.067 2°32.741 7 293 18 101090 82
2002-08-12 08:57 51°9.069 2°32.721 7.4 291 18.1 101080 82
2002-08-12 08:58 51°9.078 2°32.702 9.1 286 18.1 101080 82
2002-08-12 08:59 51°9.099 2°32.691 8.9 298 18.1 101080 81
2002-08-12 09:00 51°9.115 2°32.693 5.8 308 18.1 101080 81
2002-08-12 09:01 51°9.122 2°32.7 5 307 18.1 101080 82
2002-08-12 09:02 51°9.126 2°32.697 5.7 305 18 101090 82
2002-08-12 09:03 51°9.129 2°32.693 5.5 304 18 101090 82
2002-08-12 09:04 51°9.129 2°32.693 4.1 306 17.9 101090 82
2002-08-12 09:05 51°9.13 2°32.693 2.4 310 17.9 101100 83
2002-08-12 09:06 51°9.13 2°32.691 2.9 324 17.9 101100 84
2002-08-12 09:07 51°9.131 2°32.687 3.5 303 17.9 101100 84
2002-08-12 09:08 51°9.132 2°32.685 4.1 314 17.9 101090 84
2002-08-12 09:09 51°9.134 2°32.69 2 326 17.9 101100 84
2002-08-12 09:10 51°9.138 2°32.715 5.3 359 17.8 101100 84
2002-08-12 09:11 51°9.128 2°32.761 6.1 30 17.8 101110 85
2002-08-12 09:12 51°9.096 2°32.808 4.6 43 17.7 101110 85
2002-08-12 09:13 51°9.056 2°32.836 5 70 17.9 101120 85
2002-08-12 09:14 51°9.009 2°32.851 6 86 17.9 101130 84
2002-08-12 09:15 51°8.956 2°32.848 6.4 105 17.8 101120 84
2002-08-12 09:16 51°8.905 2°32.826 6.8 115 17.7 101130 85
2002-08-12 09:17 51°8.861 2°32.792 7.5 134 17.7 101120 86
2002-08-12 09:18 51°8.823 2°32.752 7.9 143 17.7 101130 86
2002-08-12 09:19 51°8.693 2°32.627 9.3 178 17.7 101110 85
2002-08-12 09:20 51°8.511 2°32.444 8 181 17.6 101090 86
2002-08-12 09:21 51°8.481 2°32.268 9 219 17.7 101120 87
2002-08-12 09:22 51°8.482 2°32.195 7.9 247 17.7 101130 86
2002-08-12 09:23 51°8.449 2°32.17 8.5 285 17.7 101130 87
2002-08-12 09:24 51°8.436 2°32.15 6.8 295 17.7 101120 86
2002-08-12 09:25 51°8.45 2°32.166 5.2 307 17.6 101130 86
2002-08-12 09:26 51°8.469 2°32.215 0.8 333 17.6 101130 86
2002-08-12 09:27 51°8.493 2°32.275 4.2 311 17.6 101130 86
2002-08-12 09:28 51°8.501 2°32.285 6.5 311 17.6 101130 86
2002-08-12 09:29 51°8.501 2°32.276 9.6 299 17.7 101130 86
2002-08-12 09:30 51°8.505 2°32.27 4.8 308 17.7 101130 86
2002-08-12 09:31 51°8.507 2°32.279 1.7 318 17.7 101140 85
2002-08-12 09:32 51°8.511 2°32.294 2.3 312 17.7 101150 86
2002-08-12 09:33 51°8.52 2°32.306 3.4 301 17.7 101140 86
2002-08-12 09:34 51°8.528 2°32.322 2 317 17.7 101140 86
2002-08-12 09:35 51°8.533 2°32.342 1.4 318 17.7 101150 86
2002-08-12 09:36 51°8.531 2°32.352 2.3 303 17.7 101150 85
2002-08-12 09:37 51°8.526 2°32.354 2.5 325 17.7 101150 85
2002-08-12 09:38 51°8.518 2°32.348 1.6 295 17.7 101150 85
2002-08-12 09:39 51°8.508 2°32.339 1.9 324 17.7 101150 85
2002-08-12 09:40 51°8.497 2°32.328 2.3 293 17.8 101160 86
2002-08-12 09:41 51°8.489 2°32.317 6.6 309 17.8 101160 86
2002-08-12 09:42 51°8.487 2°32.311 4.4 289 17.8 101160 86
2002-08-12 09:43 51°8.487 2°32.311 2.4 321 17.8 101160 85
2002-08-12 09:44 51°8.488 2°32.315 2.2 303 17.8 101170 86
2002-08-12 09:45 51°8.49 2°32.322 3.3 317 17.9 101170 85
2002-08-12 09:46 51°8.49 2°32.332 2.1 322 17.8 101160 85
2002-08-12 09:47 51°8.49 2°32.342 2.9 295 17.8 101170 84
2002-08-12 09:48 51°8.488 2°32.352 2.8 321 17.8 101170 84
2002-08-12 09:49 51°8.486 2°32.357 2.6 324 17.9 101170 85
2002-08-12 09:50 51°8.483 2°32.359 5.2 291 17.9 101170 83
2002-08-12 09:51 51°8.481 2°32.355 4.4 302 17.9 101170 84
2002-08-12 09:52 51°8.487 2°32.361 5.3 311 17.9 101170 83
2002-08-12 09:53 51°8.498 2°32.383 2 331 17.9 101170 83
2002-08-12 09:54 51°8.505 2°32.41 2.2 335 17.9 101170 83
2002-08-12 09:55 51°8.5 2°32.436 8.2 358 17.9 101180 83
2002-08-12 09:56 51°8.477 2°32.465 8.5 32 17.9 101180 82
2002-08-12 09:57 51°8.435 2°32.477 7.8 63 17.9 101190 82
2002-08-12 09:58 51°8.386 2°32.475 7.2 91 17.9 101200 82
2002-08-12 09:59 51°8.337 2°32.463 8.1 105 17.9 101200 82
2002-08-12 10:00 51°8.288 2°32.435 8.4 116 17.9 101190 82
2002-08-12 10:01 51°8.246 2°32.397 6.7 140 17.9 101190 82
2002-08-12 10:02 51°8.208 2°32.351 7 152 18 101190 83
2002-08-12 10:03 51°8.174 2°32.302 7.5 156 18 101190 83
2002-08-12 10:04 51°8.143 2°32.252 7.2 147 18 101190 83
2002-08-12 10:05 51°8.085 2°32.198 6 95 18 101200 83
2002-08-12 10:06 51°8.07 2°32.17 6.2 63 18 101200 83
2002-08-12 10:07 51°8.043 2°32.201 5.1 344 18 101190 83
2002-08-12 10:08 51°8.042 2°32.234 3.6 324 18 101180 83
2002-08-12 10:09 51°8.052 2°32.279 3.3 329 18 101180 83
2002-08-12 10:10 51°8.066 2°32.329 2.8 322 18 101180 82
2002-08-12 10:11 51°8.07 2°32.38 1 337 18 101190 82
2002-08-12 10:12 51°8.075 2°32.431 0.7 316 18.1 101190 83
2002-08-12 10:13 51°8.081 2°32.478 1.5 318 18 101200 83
2002-08-12 10:14 51°8.091 2°32.52 4.6 309 18 101200 82
2002-08-12 10:15 51°8.097 2°32.567 1.4 328 18 101200 82
2002-08-12 10:16 51°8.097 2°32.618 1.4 306 18 101190 81
2002-08-12 10:17 51°8.094 2°32.669 4.8 348 18 101200 81
2002-08-12 10:18 51°8.087 2°32.72 1.8 314 18 101200 81
2002-08-12 10:19 51°8.088 2°32.767 1.4 311 18.1 101200 82
2002-08-12 10:20 51°8.086 2°32.807 1.3 324 18.1 101190 81
2002-08-12 10:21 51°8.081 2°32.842 2.7 311 18.1 101200 82
2002-08-12 10:22 51°8.073 2°32.874 2 323 18.1 101200 81
2002-08-12 10:23 51°8.065 2°32.901 1.2 317 18 101200 82
2002-08-12 10:24 51°8.057 2°32.925 1.2 331 18 101200 81
2002-08-12 10:25 51°8.054 2°32.936 5.2 307 18.1 101200 82
2002-08-12 10:26 51°8.055 2°32.939 7.2 301 18.2 101200 83
2002-08-12 10:27 51°8.051 2°32.944 2.2 326 18.2 101200 82
2002-08-12 10:28 51°8.049 2°32.945 7 299 18.2 101200 81
2002-08-12 10:29 51°8.046 2°32.936 8.4 282 18.2 101200 81
2002-08-12 10:30 51°8.044 2°32.921 8.2 281 18.3 101200 81
2002-08-12 10:31 51°8.042 2°32.904 7.8 279 18.3 101200 80
2002-08-12 10:32 51°8.04 2°32.887 7.5 286 18.4 101200 80
2002-08-12 10:33 51°8.04 2°32.875 7.5 299 18.4 101200 80
2002-08-12 10:34 51°8.052 2°32.892 3.9 309 18.4 101200 81
2002-08-12 10:35 51°8.07 2°32.932 5.7 305 18.3 101200 81
2002-08-12 10:36 51°8.091 2°32.969 8.4 301 18.3 101210 82
2002-08-12 10:37 51°8.103 2°32.986 6.6 302 18.3 101210 82
2002-08-12 10:38 51°8.109 2°32.991 7.2 301 18.3 101210 82
2002-08-12 10:39 51°8.11 2°32.988 5.6 303 18.3 101210 82
2002-08-12 10:40 51°8.107 2°32.981 5.6 306 18.2 101210 82
2002-08-12 10:41 51°8.102 2°32.971 6.4 306 18.3 101220 82
2002-08-12 10:42 51°8.095 2°32.96 5.9 305 18.3 101220 81
2002-08-12 10:43 51°8.086 2°32.948 4 310 18.4 101220 83
2002-08-12 10:44 51°8.082 2°32.94 3.3 306 18.4 101220 82
2002-08-12 10:45 51°8.082 2°32.952 0.9 325 18.3 101220 82
2002-08-12 10:46 51°8.071 2°32.971 4.1 357 18.2 101230 82
2002-08-12 10:47 51°8.06 2°32.987 1.6 331 18.2 101230 81
2002-08-12 10:48 51°8.054 2°32.994 3.6 318 18.1 101240 81
2002-08-12 10:49 51°8.051 2°32.991 5.3 301 18.1 101240 81
2002-08-12 10:50 51°8.05 2°32.98 7.9 297 18.2 101240 81
2002-08-12 10:51 51°8.051 2°32.966 8.5 288 18.2 101230 81
2002-08-12 10:52 51°8.058 2°32.952 8.3 289 18.2 101240 80
2002-08-12 10:53 51°8.073 2°32.949 6.7 303 18.2 101240 80
2002-08-12 10:54 51°8.093 2°32.955 9.9 300 18.3 101240 80
2002-08-12 10:55 51°8.12 2°32.987 1.4 341 18.3 101240 80
2002-08-12 10:56 51°8.126 2°33.041 0.6 327 18.3 101250 80
2002-08-12 10:57 51°8.13 2°33.074 2.3 308 18.2 101250 79
2002-08-12 10:58 51°8.134 2°33.084 2.5 309 18.2 101250 80
2002-08-12 10:59 51°8.134 2°33.083 4.3 310 18.2 101250 80
2002-08-12 11:00 51°8.131 2°33.075 6.2 306 18.2 101250 81
2002-08-12 11:01 51°8.124 2°33.064 5.3 301 18.3 101250 81
2002-08-12 11:02 51°8.116 2°33.05 6.6 317 18.3 101250 81
2002-08-12 11:03 51°8.105 2°33.035 6 306 18.3 101250 81
2002-08-12 11:04 51°8.094 2°33.019 4.6 306 18.3 101250 80
2002-08-12 11:05 51°8.082 2°33.002 3.8 304 18.3 101250 80
2002-08-12 11:06 51°8.069 2°32.986 3.7 316 18.3 101250 81
2002-08-12 11:07 51°8.056 2°32.971 5 302 18.3 101250 81
2002-08-12 11:08 51°8.046 2°32.959 4.1 305 18.3 101260 81
2002-08-12 11:09 51°8.045 2°32.951 6.3 301 18.3 101250 81
2002-08-12 11:10 51°8.05 2°32.946 4.6 298 18.3 101250 81
2002-08-12 11:11 51°8.061 2°32.947 4.9 307 18.3 101250 81
2002-08-12 11:12 51°8.073 2°32.953 6 299 18.3 101250 81
2002-08-12 11:13 51°8.086 2°32.965 4.6 292 18.3 101250 81
2002-08-12 11:14 51°8.099 2°32.982 3 320 18.3 101250 82
2002-08-12 11:15 51°8.112 2°33.003 2.3 312 18.3 101260 81
2002-08-12 11:16 51°8.116 2°33.029 6.3 352 18.3 101260 81
2002-08-12 11:17 51°8.102 2°33.059 7 32 18.3 101260 82
2002-08-12 11:18 51°8.061 2°33.087 5.7 112 18.2 101270 81
2002-08-12 11:19 51°7.966 2°33.003 8.5 191 18.2 101260 82
2002-08-12 11:20 51°7.874 2°32.819 8.9 191 18.1 101250 82
2002-08-12 11:21 51°7.799 2°32.653 7.5 192 18.1 101240 83
2002-08-12 11:22 51°7.739 2°32.516 7.2 183 18 101250 83
2002-08-12 11:23 51°7.684 2°32.395 7.2 181 18 101260 83
2002-08-12 11:24 51°7.632 2°32.282 6.1 183 18 101270 83
2002-08-12 11:25 51°7.579 2°32.171 6.4 187 18 101270 84
2002-08-12 11:26 51°7.524 2°32.06 7.2 183 18 101270 83
2002-08-12 11:27 51°7.474 2°31.952 6.6 190 18 101270 83
2002-08-12 11:28 51°7.427 2°31.84 7.7 196 18 101260 83
2002-08-12 11:29 51°7.383 2°31.731 6.8 183 18 101260 83
2002-08-12 11:30 51°7.328 2°31.626 6.5 179 17.9 101280 83
2002-08-12 11:31 51°7.273 2°31.524 6.3 189 18 101280 84
2002-08-12 11:32 51°7.218 2°31.422 6.8 182 18 101270 83
2002-08-12 11:33 51°7.161 2°31.323 5.6 182 18 101280 83
2002-08-12 11:34 51°7.103 2°31.226 5 186 18 101290 83
2002-08-12 11:35 51°7.055 2°31.124 6.8 197 18 101280 84
2002-08-12 11:36 51°7.015 2°31.016 7.6 198 18 101280 83
2002-08-12 11:37 51°6.981 2°30.905 6.7 187 18 101280 83
2002-08-12 11:38 51°6.926 2°30.831 5.3 131 18.1 101290 84
2002-08-12 11:39 51°6.862 2°30.832 5.8 99 18.1 101300 83
2002-08-12 11:40 51°6.782 2°30.845 4.3 126 18.1 101300 83
2002-08-12 11:41 51°6.691 2°30.855 4.2 110 18.2 101300 83
2002-08-12 11:42 51°6.596 2°30.88 5.4 119 18.2 101300 83
2002-08-12 11:43 51°6.501 2°30.897 4.7 118 18.3 101300 83
2002-08-12 11:44 51°6.414 2°30.948 3.2 43 18.3 101310 83
2002-08-12 11:45 51°6.421 2°31.082 4.2 293 18.3 101300 83
2002-08-12 11:46 51°6.481 2°31.312 3.3 315 18.3 101300 82
2002-08-12 11:47 51°6.549 2°31.572 7.6 295 18.4 101300 82
2002-08-12 11:48 51°6.619 2°31.835 8.6 300 18.4 101300 82
2002-08-12 11:49 51°6.692 2°32.1 8.9 299 18.4 101300 81
2002-08-12 11:50 51°6.765 2°32.361 6.2 306 18.4 101290 81
2002-08-12 11:51 51°6.81 2°32.578 8.9 300 18.4 101300 82
2002-08-12 11:52 51°6.847 2°32.654 3.9 302 18.4 101290 81
2002-08-12 11:53 51°6.84 2°32.665 2.4 304 18.3 101300 80
2002-08-12 11:54 51°6.834 2°32.678 3.6 326 18.3 101300 81
2002-08-12 11:55 51°6.831 2°32.693 6.6 307 18.3 101310 81
2002-08-12 11:56 51°6.83 2°32.707 5.8 306 18.3 101310 81
2002-08-12 11:57 51°6.831 2°32.719 7.6 301 18.3 101310 82
2002-08-12 11:58 51°6.833 2°32.73 8.2 282 18.4 101310 82
2002-08-12 11:59 51°6.835 2°32.741 7.5 292 18.5 101310 82
2002-08-12 12:00 51°6.837 2°32.752 7.8 290 18.6 101310 81
2002-08-12 12:01 51°6.839 2°32.762 8.4 290 18.6 101310 80
2002-08-12 12:02 51°6.841 2°32.772 8.2 288 18.6 101310 80
2002-08-12 12:03 51°6.843 2°32.782 9 289 18.6 101310 79
2002-08-12 12:04 51°6.844 2°32.793 7.3 285 18.7 101320 80
2002-08-12 12:05 51°6.846 2°32.803 8 285 18.7 101320 80
2002-08-12 12:06 51°6.849 2°32.815 7.8 296 18.7 101320 79
2002-08-12 12:07 51°6.853 2°32.829 7.3 297 18.7 101320 80
2002-08-12 12:08 51°6.858 2°32.844 7.8 298 18.8 101320 80
2002-08-12 12:09 51°6.864 2°32.861 7.3 301 18.7 101330 80
2002-08-12 12:10 51°6.87 2°32.879 6.3 298 18.7 101330 80
2002-08-12 12:11 51°6.876 2°32.898 5.5 302 18.7 101320 81
2002-08-12 12:12 51°6.884 2°32.92 8.2 299 18.7 101320 81
2002-08-12 12:13 51°6.881 2°33.041 3.5 64 18.6 101320 80
2002-08-12 12:14 51°6.78 2°33.068 6.5 129 18.6 101320 79
2002-08-12 12:15 51°6.736 2°33.052 6.3 160 18.6 101320 81
2002-08-12 12:16 51°6.72 2°33.043 6.6 176 18.6 101320 81
2002-08-12 12:17 51°6.707 2°33.027 6.4 192 18.5 101320 82
2002-08-12 12:18 51°6.696 2°33.007 6.8 192 18.4 101320 82
2002-08-12 12:19 51°6.689 2°32.986 6.9 208 18.3 101320 81
2002-08-12 12:20 51°6.684 2°32.964 6.9 215 18.3 101310 82
2002-08-12 12:21 51°6.686 2°32.945 8 227 18.4 101320 82
2002-08-12 12:22 51°6.694 2°32.929 7.3 230 18.4 101330 81
2002-08-12 12:23 51°6.702 2°32.912 7.1 210 18.4 101330 81
2002-08-12 12:24 51°6.695 2°32.797 9.6 202 18.4 101310 81
2002-08-12 12:25 51°6.652 2°32.561 10.2 205 18.3 101300 82
2002-08-12 12:26 51°6.635 2°32.3 10.4 202 18.3 101310 83
2002-08-12 12:27 51°6.581 2°32.044 11.2 203 18.3 101300 82
2002-08-12 12:28 51°6.56 2°31.779 12.9 208 18.3 101310 83
2002-08-12 12:29 51°6.522 2°31.516 11.6 213 18.2 101290 81
2002-08-12 12:30 51°6.5 2°31.248 12.4 210 18.2 101290 80
2002-08-12 12:31 51°6.515 2°30.998 13 243 18.2 101300 81
2002-08-12 12:32 51°6.664 2°30.923 12.7 256 18.4 101310 81
2002-08-12 12:33 51°6.829 2°30.941 11.4 271 18.4 101310 80
2002-08-12 12:34 51°6.991 2°31.059 11.3 275 18.4 101320 80
2002-08-12 12:35 51°7.171 2°31.246 9 276 18.4 101310 80
2002-08-12 12:36 51°7.332 2°31.509 10.3 278 18.4 101320 81
2002-08-12 12:37 51°7.487 2°31.788 9.7 282 18.5 101320 80
2002-08-12 12:38 51°7.626 2°32.086 8.9 279 18.5 101320 81
2002-08-12 12:39 51°7.757 2°32.392 9.2 293 18.5 101330 80
2002-08-12 12:40 51°7.889 2°32.699 9.5 283 18.5 101330 80
2002-08-12 12:41 51°8.025 2°33.003 8.1 280 18.5 101320 80
2002-08-12 12:42 51°8.157 2°33.312 9.8 288 18.6 101320 80
2002-08-12 12:43 51°8.285 2°33.625 9.5 286 18.6 101330 80
2002-08-12 12:44 51°8.411 2°33.943 8.7 288 18.6 101320 79
2002-08-12 12:45 51°8.532 2°34.265 10.8 285 18.6 101330 80
2002-08-12 12:46 51°8.654 2°34.586 9.5 292 18.6 101320 79
2002-08-12 12:47 51°8.772 2°34.915 8 286 18.6 101320 80
2002-08-12 12:48 51°8.881 2°35.25 10.3 289 18.6 101320 80
2002-08-12 12:49 51°8.989 2°35.582 8 288 18.6 101320 80
2002-08-12 12:50 51°9.103 2°35.913 8 283 18.6 101320 80
2002-08-12 12:51 51°9.215 2°36.245 8 282 18.6 101320 80
2002-08-12 12:52 51°9.329 2°36.578 8.2 283 18.6 101330 80
2002-08-12 12:53 51°9.444 2°36.911 7.9 289 18.6 101320 80
2002-08-12 12:54 51°9.553 2°37.25 7.2 298 18.6 101320 79
2002-08-12 12:55 51°9.648 2°37.591 7.6 292 18.6 101320 80
2002-08-12 12:56 51°9.758 2°37.935 7.5 288 18.6 101320 80
2002-08-12 12:57 51°9.899 2°38.238 9.3 275 18.6 101320 80
2002-08-12 12:58 51°10.071 2°38.495 10.3 279 18.6 101310 80
2002-08-12 12:59 51°10.237 2°38.768 8.7 276 18.6 101320 81
2002-08-12 13:00 51°10.39 2°39.063 9 283 18.6 101320 80
2002-08-12 13:01 51°10.498 2°39.402 7.8 299 18.6 101320 81
2002-08-12 13:02 51°10.559 2°39.777 5.8 302 18.6 101330 80
2002-08-12 13:03 51°10.626 2°40.154 7.2 294 18.6 101340 81
2002-08-12 13:04 51°10.691 2°40.531 6.4 297 18.6 101340 80
2002-08-12 13:05 51°10.758 2°40.91 6.6 301 18.6 101340 80
2002-08-12 13:06 51°10.829 2°41.29 7.3 294 18.7 101350 80
2002-08-12 13:07 51°10.899 2°41.671 7.1 294 18.7 101340 80
2002-08-12 13:08 51°10.971 2°42.056 8.5 295 18.7 101340 79
2002-08-12 13:09 51°11.043 2°42.437 7.7 300 18.7 101350 79
2002-08-12 13:10 51°11.114 2°42.82 8.1 293 18.7 101340 80
2002-08-12 13:11 51°11.186 2°43.202 8.8 290 18.7 101340 79
2002-08-12 13:12 51°11.26 2°43.584 8.4 295 18.7 101340 78
2002-08-12 13:13 51°11.337 2°43.968 8 287 18.7 101350 78
2002-08-12 13:14 51°11.413 2°44.353 8.1 298 18.7 101340 78
2002-08-12 13:15 51°11.487 2°44.734 6.7 290 18.7 101340 78
2002-08-12 13:16 51°11.562 2°45.118 7.6 288 18.7 101350 78
2002-08-12 13:17 51°11.643 2°45.501 7.4 297 18.7 101350 79
2002-08-12 13:18 51°11.728 2°45.884 8 287 18.7 101340 79
2002-08-12 13:19 51°11.821 2°46.26 9.7 293 18.7 101350 79
2002-08-12 13:20 51°11.916 2°46.63 9.9 291 18.7 101340 79
2002-08-12 13:21 51°12.015 2°47.003 8.6 288 18.7 101340 79
2002-08-12 13:22 51°12.116 2°47.372 9.1 293 18.7 101340 79
2002-08-12 13:23 51°12.22 2°47.74 10.3 296 18.7 101340 79
2002-08-12 13:24 51°12.324 2°48.109 9.6 280 18.7 101340 80
2002-08-12 13:25 51°12.443 2°48.468 9.2 280 18.7 101340 80
2002-08-12 13:26 51°12.564 2°48.824 9.6 283 18.6 101340 79
2002-08-12 13:27 51°12.681 2°49.182 8.5 279 18.6 101340 80
2002-08-12 13:28 51°12.801 2°49.539 8.8 283 18.6 101340 80
2002-08-12 13:29 51°12.92 2°49.9 8.8 290 18.6 101340 80
2002-08-12 13:30 51°13.016 2°50.274 7.8 286 18.6 101340 80
2002-08-12 13:31 51°13.096 2°50.662 9.1 286 18.6 101340 80
2002-08-12 13:32 51°13.207 2°51.03 9.2 283 18.7 101340 80
2002-08-12 13:33 51°13.332 2°51.352 6.8 294 18.6 101340 79
2002-08-12 13:34 51°13.426 2°51.593 7.2 296 18.6 101350 80
2002-08-12 13:35 51°13.552 2°51.861 9.4 286 18.7 101350 80
2002-08-12 13:36 51°13.7 2°52.161 9.3 281 18.7 101340 80
2002-08-12 13:37 51°13.848 2°52.469 10 285 18.7 101340 79
2002-08-12 13:38 51°13.986 2°52.791 7.8 301 18.7 101340 79
2002-08-12 13:39 51°14.1 2°53.138 9.1 293 18.7 101340 79
2002-08-12 13:40 51°14.223 2°53.48 8 285 18.7 101350 80
2002-08-12 13:41 51°14.341 2°53.826 7.5 286 18.7 101340 80
2002-08-12 13:42 51°14.423 2°54.193 7.2 289 18.7 101350 80
2002-08-12 13:43 51°14.464 2°54.57 3.8 303 18.7 101340 80
2002-08-12 13:44 51°14.402 2°54.918 0.7 279 18.7 101360 79
2002-08-12 13:45 51°14.301 2°55.186 2.6 90 18.8 101360 79
2002-08-12 13:46 51°14.208 2°55.337 2.8 95 18.8 101360 79
2002-08-12 13:47 51°14.116 2°55.42 4.3 112 18.8 101360 78
2002-08-12 13:48 51°14.027 2°55.485 3.7 109 18.8 101360 79
2002-08-12 13:49 51°13.934 2°55.548 3.4 127 18.8 101360 78
2002-08-12 13:50 51°13.856 2°55.607 2.5 62 18.8 101370 77